Time;durP1;ratioP1;P1;durP2;ratioP2;P2;SDS_P1;SDS_P2;PMS_P1;PMS_P2;Temp;Humidity;BMP_temperature;BMP_pressure;BME280_temperature;BME280_humidity;BME280_pressure;Samples;Min_cycle;Max_cycle;Signal;HPM_P1;HPM_P2
2021/10/09 00:02:16;;;;;;;0.00;0.00;;;;;;;;;;4998182;28;20102;-84
2021/10/09 00:04:42;;;;;;;0.55;0.50;;;;;;;;;;4998769;28;20038;-85
2021/10/09 00:07:08;;;;;;;0.00;0.00;;;;;;;;;;5002053;28;20076;-83
2021/10/09 00:09:35;;;;;;;0.30;0.30;;;;;;;;;;4999861;28;20037;-83
2021/10/09 00:12:01;;;;;;;0.57;0.32;;;;;;;;;;5002339;28;21164;-84
2021/10/09 00:14:27;;;;;;;0.20;0.20;;;;;;;;;;4995858;28;20038;-83
2021/10/09 00:16:53;;;;;;;0.17;0.17;;;;;;;;;;5000354;28;20061;-84
2021/10/09 00:19:19;;;;;;;0.28;0.28;;;;;;;;;;4999007;28;20108;-84
2021/10/09 00:21:46;;;;;;;0.07;0.07;;;;;;;;;;4998954;28;20874;-83
2021/10/09 00:24:13;;;;;;;0.10;0.10;;;;;;;;;;4999755;28;20060;-84
2021/10/09 00:26:39;;;;;;;;;;;;;;;;;;4996410;28;20104;-84
2021/10/09 00:29:05;;;;;;;0.43;0.43;;;;;;;;;;4997605;28;19913;-84
2021/10/09 00:31:31;;;;;;;0.30;0.30;;;;;;;;;;4996883;28;20029;-83
2021/10/09 00:33:57;;;;;;;0.10;0.10;;;;;;;;;;5002593;28;20075;-83
2021/10/09 00:36:23;;;;;;;0.40;0.40;;;;;;;;;;4998595;28;20536;-83
2021/10/09 00:38:49;;;;;;;0.10;0.10;;;;;;;;;;4998248;28;20578;-84
2021/10/09 00:41:15;;;;;;;0.15;0.15;;;;;;;;;;4995672;28;20121;-83
2021/10/09 00:43:41;;;;;;;0.23;0.23;;;;;;;;;;4991730;28;20034;-84
2021/10/09 00:46:08;;;;;;;0.00;0.00;;;;;;;;;;5002567;28;20030;-83
2021/10/09 00:48:34;;;;;;;0.10;0.10;;;;;;;;;;4998205;28;20402;-84
2021/10/09 00:51:00;;;;;;;0.00;0.00;;;;;;;;;;5002896;28;20060;-83
2021/10/09 00:53:27;;;;;;;13.57;2.37;;;;;;;;;;4999103;28;20030;-83
2021/10/09 00:55:53;;;;;;;0.15;0.13;;;;;;;;;;5002864;28;20041;-83
2021/10/09 00:58:20;;;;;;;1.98;0.80;;;;;;;;;;4999992;28;20026;-84
2021/10/09 01:00:46;;;;;;;0.00;0.00;;;;;;;;;;4997466;28;20044;-84
2021/10/09 01:03:12;;;;;;;0.70;0.38;;;;;;;;;;4994116;28;20033;-84
2021/10/09 01:05:39;;;;;;;0.32;0.20;;;;;;;;;;5001569;28;20037;-82
2021/10/09 01:08:05;;;;;;;0.20;0.20;;;;;;;;;;4999656;28;20061;-84
2021/10/09 01:10:31;;;;;;;0.10;0.10;;;;;;;;;;4994362;28;20560;-83
2021/10/09 01:12:59;;;;;;;0.25;0.25;;;;;;;;;;4994396;28;20056;-83
2021/10/09 01:15:29;;;;;;;0.08;0.08;;;;;;;;;;4996003;28;20520;-83
2021/10/09 01:17:55;;;;;;;2.85;0.60;;;;;;;;;;4992129;28;20030;-84
2021/10/09 01:20:21;;;;;;;0.65;0.57;;;;;;;;;;4996467;28;20045;-84
2021/10/09 01:22:47;;;;;;;0.10;0.10;;;;;;;;;;4998508;28;20188;-85
2021/10/09 01:25:14;;;;;;;0.10;0.10;;;;;;;;;;4991841;28;20095;-84
2021/10/09 01:27:41;;;;;;;0.17;0.17;;;;;;;;;;4992253;28;20327;-84
2021/10/09 01:30:09;;;;;;;0.13;0.13;;;;;;;;;;4990044;28;20076;-84
2021/10/09 01:32:35;;;;;;;0.22;0.22;;;;;;;;;;4997737;28;20034;-84
2021/10/09 01:35:07;;;;;;;0.10;0.10;;;;;;;;;;4999090;28;20144;-82
2021/10/09 01:37:40;;;;;;;0.43;0.40;;;;;;;;;;4997951;28;20050;-83
2021/10/09 01:40:07;;;;;;;0.13;0.13;;;;;;;;;;4998024;28;20030;-83
2021/10/09 01:42:35;;;;;;;0.10;0.10;;;;;;;;;;4996476;28;20081;-84
2021/10/09 01:45:01;;;;;;;0.10;0.10;;;;;;;;;;4993299;28;20421;-83
2021/10/09 01:47:27;;;;;;;0.13;0.08;;;;;;;;;;4995000;28;20026;-83
2021/10/09 01:49:53;;;;;;;0.00;0.00;;;;;;;;;;4993074;28;20388;-83
2021/10/09 01:52:19;;;;;;;0.00;0.00;;;;;;;;;;4992494;28;20038;-83
2021/10/09 01:54:45;;;;;;;0.10;0.10;;;;;;;;;;4997419;28;20046;-83
2021/10/09 01:57:11;;;;;;;0.43;0.43;;;;;;;;;;4993177;28;20040;-83
2021/10/09 01:59:37;;;;;;;0.13;0.13;;;;;;;;;;5000452;28;20100;-82
2021/10/09 02:02:03;;;;;;;0.10;0.10;;;;;;;;;;4992491;28;20113;-83
2021/10/09 02:04:29;;;;;;;0.23;0.23;;;;;;;;;;4992517;28;20777;-83
2021/10/09 02:06:55;;;;;;;0.17;0.17;;;;;;;;;;4992769;28;20295;-84
2021/10/09 02:09:21;;;;;;;0.03;0.03;;;;;;;;;;4992400;28;20044;-83
2021/10/09 02:11:49;;;;;;;0.10;0.10;;;;;;;;;;4990482;28;20034;-83
2021/10/09 02:14:25;;;;;;;0.15;0.15;;;;;;;;;;4996001;28;20092;-83
2021/10/09 02:27:34;;;;;;;0.15;0.15;;;;;;;;;;5003764;28;20030;-84
2021/10/09 02:30:00;;;;;;;0.10;0.10;;;;;;;;;;5008576;28;20034;-82
2021/10/09 02:32:26;;;;;;;0.10;0.10;;;;;;;;;;5005443;28;20056;-83
2021/10/09 02:34:52;;;;;;;0.15;0.15;;;;;;;;;;4996038;28;20038;-82
2021/10/09 02:37:18;;;;;;;0.10;0.10;;;;;;;;;;5003606;28;20573;-82
2021/10/09 02:39:44;;;;;;;0.40;0.40;;;;;;;;;;5006497;28;20403;-82
2021/10/09 02:42:10;;;;;;;0.10;0.10;;;;;;;;;;5001407;28;20030;-82
2021/10/09 02:44:36;;;;;;;0.10;0.10;;;;;;;;;;5005725;28;20034;-82
2021/10/09 02:47:02;;;;;;;0.00;0.00;;;;;;;;;;5000077;28;20030;-83
2021/10/09 02:49:28;;;;;;;0.23;0.23;;;;;;;;;;5002405;28;20939;-82
2021/10/09 02:51:54;;;;;;;0.05;0.05;;;;;;;;;;5009094;28;20025;-82
2021/10/09 02:54:21;;;;;;;0.20;0.20;;;;;;;;;;5008174;28;20060;-82
2021/10/09 02:56:47;;;;;;;0.10;0.10;;;;;;;;;;5007274;28;20048;-82
2021/10/09 02:59:13;;;;;;;0.50;0.50;;;;;;;;;;5007695;28;20034;-82
2021/10/09 03:01:39;;;;;;;0.15;0.13;;;;;;;;;;5000188;28;20059;-83
2021/10/09 03:04:05;;;;;;;0.20;0.20;;;;;;;;;;5003890;28;20784;-82
2021/10/09 03:06:31;;;;;;;0.27;0.27;;;;;;;;;;5007523;28;20029;-82
2021/10/09 03:08:57;;;;;;;0.05;0.05;;;;;;;;;;5006359;28;20026;-82
2021/10/09 03:11:23;;;;;;;0.10;0.10;;;;;;;;;;5001635;28;20029;-82
2021/10/09 03:13:49;;;;;;;0.10;0.10;;;;;;;;;;5002476;28;20042;-82
2021/10/09 03:16:15;;;;;;;0.20;0.20;;;;;;;;;;5001751;28;20030;-83
2021/10/09 03:18:41;;;;;;;0.20;0.20;;;;;;;;;;5006233;28;20041;-83
2021/10/09 03:21:07;;;;;;;0.00;0.00;;;;;;;;;;5007113;28;20037;-83
2021/10/09 03:23:33;;;;;;;0.17;0.17;;;;;;;;;;4996982;28;20517;-82
2021/10/09 03:26:03;;;;;;;0.63;0.45;;;;;;;;;;5000925;28;20049;-83
2021/10/09 03:28:29;;;;;;;0.47;0.47;;;;;;;;;;5008243;28;20030;-82
2021/10/09 03:30:55;;;;;;;0.85;0.38;;;;;;;;;;4994871;28;20038;-83
2021/10/09 03:33:21;;;;;;;0.20;0.20;;;;;;;;;;4999262;28;20025;-83
2021/10/09 03:35:48;;;;;;;1.15;0.28;;;;;;;;;;5003236;28;20461;-83
2021/10/09 03:38:14;;;;;;;0.00;0.00;;;;;;;;;;5001703;28;20156;-81
2021/10/09 03:40:43;;;;;;;0.13;0.13;;;;;;;;;;5001095;28;20109;-83
2021/10/09 03:43:13;;;;;;;0.17;0.17;;;;;;;;;;5003060;28;20415;-83
2021/10/09 03:45:48;;;;;;;0.20;0.20;;;;;;;;;;4998129;28;20084;-83
2021/10/09 03:53:06;;;;;;;0.68;0.45;;;;;;;;;;4997611;28;20061;-83
2021/10/09 03:55:32;;;;;;;0.10;0.10;;;;;;;;;;4993809;28;20107;-84
2021/10/09 03:57:58;;;;;;;5.53;0.67;;;;;;;;;;5001233;28;20485;-83
2021/10/09 04:00:24;;;;;;;0.45;0.45;;;;;;;;;;4999006;28;21730;-83
2021/10/09 04:02:50;;;;;;;0.60;0.45;;;;;;;;;;5000195;28;20585;-83
2021/10/09 04:05:17;;;;;;;1.13;1.00;;;;;;;;;;4997272;28;20054;-82
2021/10/09 04:07:43;;;;;;;0.20;0.20;;;;;;;;;;4994557;28;20041;-82
2021/10/09 04:10:10;;;;;;;0.10;0.10;;;;;;;;;;5000739;28;20410;-83
2021/10/09 04:12:36;;;;;;;0.45;0.45;;;;;;;;;;4994265;28;20034;-83
2021/10/09 04:15:02;;;;;;;0.32;0.32;;;;;;;;;;4992193;28;20042;-82
2021/10/09 04:17:28;;;;;;;0.65;0.65;;;;;;;;;;4993237;28;20026;-82
2021/10/09 04:19:54;;;;;;;0.13;0.13;;;;;;;;;;5000455;28;20058;-82
2021/10/09 04:22:20;;;;;;;0.03;0.03;;;;;;;;;;5004299;28;20558;-82
2021/10/09 04:24:46;;;;;;;0.13;0.13;;;;;;;;;;5000677;28;20045;-82
2021/10/09 04:27:12;;;;;;;0.20;0.20;;;;;;;;;;4997049;28;20021;-82
2021/10/09 04:29:38;;;;;;;0.55;0.55;;;;;;;;;;4999515;28;20041;-83
2021/10/09 04:32:04;;;;;;;0.30;0.30;;;;;;;;;;4999022;28;20034;-82
2021/10/09 04:34:30;;;;;;;0.87;0.43;;;;;;;;;;5003387;28;20045;-83
2021/10/09 04:36:57;;;;;;;0.10;0.10;;;;;;;;;;4995485;28;20823;-82
2021/10/09 04:39:23;;;;;;;0.57;0.50;;;;;;;;;;4997094;28;20037;-81
2021/10/09 04:41:49;;;;;;;0.10;0.10;;;;;;;;;;4996818;28;20499;-81
2021/10/09 04:44:15;;;;;;;0.65;0.50;;;;;;;;;;4993834;28;20084;-82
2021/10/09 04:46:41;;;;;;;0.10;0.10;;;;;;;;;;5002576;28;20041;-82
2021/10/09 04:49:09;;;;;;;1.35;0.55;;;;;;;;;;4998625;28;20029;-82
2021/10/09 04:51:35;;;;;;;1.17;1.08;;;;;;;;;;4998155;28;20041;-82
2021/10/09 04:54:01;;;;;;;0.00;0.00;;;;;;;;;;4994655;28;20426;-81
2021/10/09 04:56:27;;;;;;;0.03;0.03;;;;;;;;;;4996883;28;20038;-82
2021/10/09 04:58:53;;;;;;;0.52;0.47;;;;;;;;;;4992934;28;20030;-83
2021/10/09 05:01:19;;;;;;;0.10;0.10;;;;;;;;;;5001081;28;20038;-82
2021/10/09 05:03:45;;;;;;;0.10;0.10;;;;;;;;;;4996705;28;20047;-82
2021/10/09 05:06:11;;;;;;;3.40;1.38;;;;;;;;;;5000031;28;20034;-82
2021/10/09 05:08:37;;;;;;;3.97;1.67;;;;;;;;;;4999197;28;20488;-82
2021/10/09 05:11:03;;;;;;;0.32;0.32;;;;;;;;;;4998570;28;20034;-82
2021/10/09 05:13:30;;;;;;;0.38;0.38;;;;;;;;;;5001918;28;20477;-82
2021/10/09 05:15:56;;;;;;;0.10;0.10;;;;;;;;;;5000663;28;20933;-82
2021/10/09 05:18:22;;;;;;;0.55;0.55;;;;;;;;;;4998786;28;20034;-84
2021/10/09 05:20:48;;;;;;;1.10;0.75;;;;;;;;;;4994871;28;20030;-84
2021/10/09 05:23:14;;;;;;;0.00;0.00;;;;;;;;;;4996986;28;20515;-84
2021/10/09 05:25:42;;;;;;;0.00;0.00;;;;;;;;;;4997651;28;20585;-84
2021/10/09 05:28:15;;;;;;;0.20;0.20;;;;;;;;;;4999748;28;20088;-84
2021/10/09 05:30:48;;;;;;;0.08;0.08;;;;;;;;;;4997320;28;20107;-84
2021/10/09 05:35:43;;;;;;;0.20;0.20;;;;;;;;;;4991571;28;20097;-86
2021/10/09 05:38:10;;;;;;;0.10;0.10;;;;;;;;;;4995165;28;20092;-85
2021/10/09 05:40:36;;;;;;;0.43;0.43;;;;;;;;;;4992884;28;20042;-85
2021/10/09 05:43:02;;;;;;;0.20;0.20;;;;;;;;;;4991387;28;20905;-85
2021/10/09 05:45:28;;;;;;;0.10;0.10;;;;;;;;;;4990209;28;20084;-85
2021/10/09 05:47:54;;;;;;;0.23;0.23;;;;;;;;;;4990262;28;20654;-84
2021/10/09 05:50:25;;;;;;;0.55;0.55;;;;;;;;;;4990004;28;20117;-85
2021/10/09 05:53:10;;;;;;;0.30;0.30;;;;;;;;;;4992278;28;20041;-84
2021/10/09 06:50:03;;;;;;;0.10;0.10;;;;;;;;;;4942438;29;20035;-82
2021/10/09 07:00:44;;;;;;;0.15;0.15;;;;;;;;;;4933397;29;20047;-83
2021/10/09 07:03:10;;;;;;;0.10;0.10;;;;;;;;;;4931981;29;20040;-82
2021/10/09 07:05:40;;;;;;;0.57;0.35;;;;;;;;;;4994298;28;20427;-82
2021/10/09 07:08:10;;;;;;;25.33;0.88;;;;;;;;;;5005623;28;20502;-82
2021/10/09 07:10:38;;;;;;;3.03;0.75;;;;;;;;;;5007534;28;20570;-83
2021/10/09 07:13:04;;;;;;;0.50;0.32;;;;;;;;;;5004802;28;20601;-82
2021/10/09 07:15:30;;;;;;;0.47;0.47;;;;;;;;;;5004593;28;20499;-83
2021/10/09 07:17:56;;;;;;;0.32;0.25;;;;;;;;;;4994728;28;20118;-83
2021/10/09 07:20:22;;;;;;;0.22;0.22;;;;;;;;;;4996281;28;20050;-83
2021/10/09 07:22:48;;;;;;;0.00;0.00;;;;;;;;;;4990125;28;20092;-84
2021/10/09 07:25:15;;;;;;;1.00;0.85;;;;;;;;;;4991840;28;20117;-83
2021/10/09 07:27:41;;;;;;;0.35;0.25;;;;;;;;;;4991091;28;20030;-81
2021/10/09 07:30:08;;;;;;;0.10;0.10;;;;;;;;;;4991122;28;20069;-82
2021/10/09 07:32:34;;;;;;;0.35;0.30;;;;;;;;;;4988349;28;20114;-83
2021/10/09 07:35:00;;;;;;;0.10;0.10;;;;;;;;;;4989053;28;20048;-83
2021/10/09 07:37:26;;;;;;;0.00;0.00;;;;;;;;;;5007313;28;20636;-82
2021/10/09 07:39:52;;;;;;;0.25;0.25;;;;;;;;;;4990487;28;20042;-82
2021/10/09 07:42:18;;;;;;;0.10;0.10;;;;;;;;;;5004962;28;20447;-82
2021/10/09 07:44:44;;;;;;;0.03;0.03;;;;;;;;;;4989664;28;20495;-82
2021/10/09 07:47:13;;;;;;;0.00;0.00;;;;;;;;;;4988409;28;20096;-82
2021/10/09 07:49:40;;;;;;;0.05;0.05;;;;;;;;;;4990178;28;20034;-83
2021/10/09 07:52:06;;;;;;;;;;;;;;;;;;4989937;28;20411;-83
2021/10/09 07:54:32;;;;;;;0.10;0.10;;;;;;;;;;4991621;28;19921;-82
2021/10/09 07:56:58;;;;;;;0.00;0.00;;;;;;;;;;4989187;28;20037;-83
2021/10/09 07:59:24;;;;;;;0.05;0.05;;;;;;;;;;4986947;28;20573;-84
2021/10/09 08:01:50;;;;;;;0.35;0.30;;;;;;;;;;4988632;28;20023;-81
2021/10/09 08:04:17;;;;;;;;;;;;;;;;;;4990440;28;20022;-83
2021/10/09 08:06:43;;;;;;;0.22;0.20;;;;;;;;;;4990064;28;20000;-83
2021/10/09 08:09:09;;;;;;;;;;;;;;;;;;4990576;28;20031;-83
2021/10/09 08:11:35;;;;;;;0.43;0.32;;;;;;;;;;4987859;28;19914;-83
2021/10/09 08:14:01;;;;;;;0.98;0.20;;;;;;;;;;4985652;28;20030;-83
2021/10/09 08:16:27;;;;;;;0.00;0.00;;;;;;;;;;4987814;28;20573;-82
2021/10/09 08:18:53;;;;;;;0.13;0.13;;;;;;;;;;4987675;28;20058;-83
2021/10/09 08:21:25;;;;;;;0.00;0.00;;;;;;;;;;4992014;28;20030;-83
2021/10/09 08:23:57;;;;;;;0.75;0.47;;;;;;;;;;4991427;28;20639;-82
2021/10/09 08:40:07;;;;;;;0.10;0.10;;;;;;;;;;4986617;28;20104;-82
2021/10/09 08:42:33;;;;;;;;;;;;;;;;;;4988806;28;20038;-84
2021/10/09 08:44:59;;;;;;;0.55;0.45;;;;;;;;;;4986844;28;20384;-83
2021/10/09 08:47:25;;;;;;;0.85;0.47;;;;;;;;;;4986927;28;20026;-82
2021/10/09 08:49:52;;;;;;;0.17;0.17;;;;;;;;;;4986547;28;20033;-83
2021/10/09 08:52:21;;;;;;;1.63;1.02;;;;;;;;;;4986374;28;20114;-83
2021/10/09 08:54:47;;;;;;;0.00;0.00;;;;;;;;;;4985928;28;20042;-83
2021/10/09 08:57:17;;;;;;;0.32;0.32;;;;;;;;;;4985879;28;20284;-84
2021/10/09 08:59:54;;;;;;;0.80;0.52;;;;;;;;;;4987305;28;20077;-84
2021/10/09 09:40:24;;;;;;;0.28;0.25;;;;;;;;;;4880583;29;20908;-84
2021/10/09 09:42:51;;;;;;;0.10;0.10;;;;;;;;;;4878108;29;20048;-83
2021/10/09 09:45:24;;;;;;;0.20;0.20;;;;;;;;;;4863653;29;20123;-84
2021/10/09 09:47:53;;;;;;;0.20;0.20;;;;;;;;;;4863659;29;20072;-83
2021/10/09 09:50:20;;;;;;;0.10;0.10;;;;;;;;;;4880109;29;20122;-83
2021/10/09 09:52:46;;;;;;;0.75;0.75;;;;;;;;;;4883644;29;20077;-83
2021/10/09 09:55:15;;;;;;;0.20;0.20;;;;;;;;;;4878907;29;20048;-84
2021/10/09 09:57:41;;;;;;;0.20;0.20;;;;;;;;;;4926268;29;20043;-83
2021/10/09 10:00:08;;;;;;;0.20;0.20;;;;;;;;;;4935412;29;20508;-83
2021/10/09 10:02:39;;;;;;;0.47;0.38;;;;;;;;;;4935378;29;20517;-83
2021/10/09 10:05:05;;;;;;;0.57;0.57;;;;;;;;;;4936668;29;20027;-83
2021/10/09 10:07:35;;;;;;;0.90;0.47;;;;;;;;;;4937971;29;20037;-82
2021/10/09 10:10:01;;;;;;;0.35;0.35;;;;;;;;;;4989817;28;20049;-82
2021/10/09 10:12:29;;;;;;;0.55;0.20;;;;;;;;;;4988891;28;20026;-83
2021/10/09 10:14:55;;;;;;;0.57;0.57;;;;;;;;;;4996737;28;20430;-83
2021/10/09 10:17:38;;;;;;;0.20;0.20;;;;;;;;;;4996308;28;20121;-83
2021/10/09 10:20:05;;;;;;;0.30;0.30;;;;;;;;;;5000125;28;20049;-83
2021/10/09 10:22:31;;;;;;;1.23;0.55;;;;;;;;;;5002457;28;20029;-83
2021/10/09 10:24:57;;;;;;;0.20;0.20;;;;;;;;;;5000039;28;20029;-83
2021/10/09 10:27:42;;;;;;;0.15;0.15;;;;;;;;;;4999508;28;20403;-82
2021/10/09 10:30:14;;;;;;;0.30;0.30;;;;;;;;;;5000028;28;20065;-83
2021/10/09 10:32:40;;;;;;;0.22;0.22;;;;;;;;;;5002244;28;20030;-83
2021/10/09 10:35:25;;;;;;;0.30;0.30;;;;;;;;;;4999051;28;20550;-83
2021/10/09 10:37:51;;;;;;;0.88;0.38;;;;;;;;;;4984844;28;20050;-83
2021/10/09 10:40:36;;;;;;;0.55;0.30;;;;;;;;;;5001993;28;20030;-84
2021/10/09 10:43:21;;;;;;;0.40;0.40;;;;;;;;;;5005487;28;20050;-84
2021/10/09 10:45:47;;;;;;;0.10;0.10;;;;;;;;;;5005144;28;20022;-83
2021/10/09 10:48:33;;;;;;;0.40;0.40;;;;;;;;;;5005192;28;20040;-83
2021/10/09 10:51:12;;;;;;;0.10;0.10;;;;;;;;;;4999745;28;20481;-83
2021/10/09 10:53:58;;;;;;;0.40;0.40;;;;;;;;;;4992322;28;20044;-83
2021/10/09 10:56:24;;;;;;;1.02;0.65;;;;;;;;;;5002488;28;20848;-84
2021/10/09 10:59:10;;;;;;;0.35;0.25;;;;;;;;;;5004388;28;20794;-83
2021/10/09 11:01:36;;;;;;;0.10;0.10;;;;;;;;;;5005884;28;20121;-83
2021/10/09 11:04:02;;;;;;;0.57;0.38;;;;;;;;;;5003333;28;20064;-83
2021/10/09 11:06:29;;;;;;;0.28;0.15;;;;;;;;;;5000143;28;20084;-83
2021/10/09 11:08:58;;;;;;;0.10;0.10;;;;;;;;;;5002442;28;20546;-84
2021/10/09 11:11:42;;;;;;;0.32;0.20;;;;;;;;;;5001078;28;20034;-83
2021/10/09 11:14:08;;;;;;;2.22;0.35;;;;;;;;;;4999479;28;20168;-83
2021/10/09 11:16:34;;;;;;;2.33;0.40;;;;;;;;;;4993382;28;20036;-83
2021/10/09 11:19:00;;;;;;;0.90;0.17;;;;;;;;;;4991483;28;20519;-83
2021/10/09 11:21:27;;;;;;;0.03;0.03;;;;;;;;;;4989190;28;21073;-84
2021/10/09 11:23:54;;;;;;;0.40;0.35;;;;;;;;;;4987281;28;20308;-83
2021/10/09 11:26:21;;;;;;;0.28;0.28;;;;;;;;;;4984754;28;20444;-82
2021/10/09 11:28:47;;;;;;;0.35;0.20;;;;;;;;;;4990509;28;20369;-84
2021/10/09 11:31:26;;;;;;;0.30;0.30;;;;;;;;;;4993005;28;20023;-83
2021/10/09 11:33:56;;;;;;;7.72;0.22;;;;;;;;;;4991178;28;20070;-84
2021/10/09 11:36:22;;;;;;;0.35;0.30;;;;;;;;;;4990775;28;20034;-83
2021/10/09 11:38:58;;;;;;;0.40;0.40;;;;;;;;;;4988758;28;20052;-83
2021/10/09 11:41:25;;;;;;;0.30;0.30;;;;;;;;;;4990617;28;20034;-84
2021/10/09 11:44:07;;;;;;;0.28;0.28;;;;;;;;;;4991882;28;20273;-84
2021/10/09 11:57:12;;;;;;;0.20;0.20;;;;;;;;;;5002751;28;20045;-83
2021/10/09 11:59:39;;;;;;;0.25;0.25;;;;;;;;;;5002074;28;20034;-83
2021/10/09 12:02:06;;;;;;;0.90;0.65;;;;;;;;;;4998528;28;20038;-84
2021/10/09 12:04:32;;;;;;;0.13;0.13;;;;;;;;;;4990664;28;20030;-83
2021/10/09 12:09:42;;;;;;;0.47;0.40;;;;;;;;;;4998818;28;20053;-84
2021/10/09 12:12:21;;;;;;;0.30;0.30;;;;;;;;;;5004215;28;20036;-84
2021/10/09 12:14:48;;;;;;;0.30;0.30;;;;;;;;;;4995117;28;20407;-84
2021/10/09 12:17:14;;;;;;;;;;;;;;;;;;4993227;28;20033;-83
2021/10/09 12:19:40;;;;;;;0.25;0.22;;;;;;;;;;5005128;28;19932;-84
2021/10/09 12:22:07;;;;;;;0.50;0.20;;;;;;;;;;5002207;28;20028;-84
2021/10/09 12:24:35;;;;;;;0.30;0.30;;;;;;;;;;5002875;28;20180;-84
2021/10/09 12:27:13;;;;;;;0.10;0.10;;;;;;;;;;5003838;28;20121;-84
2021/10/09 12:29:55;;;;;;;0.40;0.40;;;;;;;;;;4998049;28;20018;-85
2021/10/09 12:32:21;;;;;;;0.13;0.13;;;;;;;;;;4988197;28;20038;-84
2021/10/09 12:34:48;;;;;;;0.20;0.20;;;;;;;;;;5013523;28;20038;-83
2021/10/09 12:37:15;;;;;;;0.35;0.35;;;;;;;;;;5001017;28;20446;-84
2021/10/09 12:39:40;;;;;;;;;;;;;;;;;;4996122;28;20553;-84
2021/10/09 12:42:07;;;;;;;2.20;1.45;;;;;;;;;;4992775;28;19953;-83
2021/10/09 12:44:33;;;;;;;1.10;0.38;;;;;;;;;;5003330;28;20041;-84
2021/10/09 12:46:59;;;;;;;0.08;0.08;;;;;;;;;;5004573;28;20638;-83
2021/10/09 12:49:25;;;;;;;0.63;0.63;;;;;;;;;;5004565;28;20665;-84
2021/10/09 12:51:51;;;;;;;3.25;0.88;;;;;;;;;;5001517;28;20109;-83
2021/10/09 12:54:18;;;;;;;0.32;0.32;;;;;;;;;;5003503;28;20100;-83
2021/10/09 12:56:44;;;;;;;0.20;0.20;;;;;;;;;;5002080;28;20040;-83
2021/10/09 12:59:11;;;;;;;0.52;0.22;;;;;;;;;;5000548;28;20595;-84
2021/10/09 13:01:37;;;;;;;0.30;0.30;;;;;;;;;;5004403;28;20038;-85
2021/10/09 13:04:03;;;;;;;0.25;0.25;;;;;;;;;;5002628;28;20033;-85
2021/10/09 13:06:29;;;;;;;0.38;0.38;;;;;;;;;;4996456;28;20033;-84
2021/10/09 13:08:56;;;;;;;0.00;0.00;;;;;;;;;;4997624;28;20044;-84
2021/10/09 13:11:30;;;;;;;0.13;0.13;;;;;;;;;;5003286;28;20049;-83
2021/10/09 13:13:57;;;;;;;0.20;0.20;;;;;;;;;;5000932;28;20030;-83
2021/10/09 13:16:23;;;;;;;0.70;0.70;;;;;;;;;;5002102;28;20052;-83
2021/10/09 13:18:49;;;;;;;1.25;0.25;;;;;;;;;;5001643;28;20045;-83
2021/10/09 13:21:15;;;;;;;0.10;0.10;;;;;;;;;;4996690;28;20030;-83
2021/10/09 13:23:41;;;;;;;0.15;0.15;;;;;;;;;;4999916;28;20034;-83
2021/10/09 13:26:07;;;;;;;3.88;0.85;;;;;;;;;;4987190;28;20045;-83
2021/10/09 13:28:37;;;;;;;0.25;0.25;;;;;;;;;;4990092;28;20034;-83
2021/10/09 13:31:04;;;;;;;0.28;0.25;;;;;;;;;;4989111;28;20053;-83
2021/10/09 13:33:30;;;;;;;0.88;0.88;;;;;;;;;;4987973;28;20820;-83
2021/10/09 13:35:56;;;;;;;0.25;0.25;;;;;;;;;;4988164;28;20422;-84
2021/10/09 13:38:22;;;;;;;0.40;0.40;;;;;;;;;;4985529;28;20870;-84
2021/10/09 13:40:48;;;;;;;0.20;0.20;;;;;;;;;;4985808;28;20280;-83
2021/10/09 13:43:14;;;;;;;0.22;0.22;;;;;;;;;;5002325;28;20922;-82
2021/10/09 13:45:46;;;;;;;0.10;0.10;;;;;;;;;;4987865;28;20109;-84
2021/10/09 13:48:13;;;;;;;0.17;0.15;;;;;;;;;;4988064;28;20554;-84
2021/10/09 13:50:44;;;;;;;0.20;0.20;;;;;;;;;;5001322;28;20570;-84
2021/10/09 13:53:10;;;;;;;0.15;0.15;;;;;;;;;;5000905;28;20300;-83
2021/10/09 13:55:37;;;;;;;0.32;0.32;;;;;;;;;;5002448;28;20034;-84
2021/10/09 13:58:03;;;;;;;0.10;0.10;;;;;;;;;;5000631;28;20072;-83
2021/10/09 14:00:30;;;;;;;0.20;0.20;;;;;;;;;;5001384;28;20037;-83
2021/10/09 14:02:57;;;;;;;0.20;0.20;;;;;;;;;;5000890;28;20022;-84
2021/10/09 14:05:23;;;;;;;0.25;0.25;;;;;;;;;;5001708;28;20519;-83
2021/10/09 14:07:49;;;;;;;0.25;0.25;;;;;;;;;;5004100;28;20038;-83
2021/10/09 14:10:17;;;;;;;0.63;0.63;;;;;;;;;;4998272;28;20041;-83
2021/10/09 14:12:43;;;;;;;0.30;0.30;;;;;;;;;;4998461;28;20044;-84
2021/10/09 14:15:10;;;;;;;0.20;0.20;;;;;;;;;;4990811;28;20369;-83
2021/10/09 14:17:36;;;;;;;0.28;0.28;;;;;;;;;;4984176;28;20060;-84
2021/10/09 14:20:03;;;;;;;0.40;0.40;;;;;;;;;;4999033;28;20077;-83
2021/10/09 14:22:30;;;;;;;0.10;0.10;;;;;;;;;;4986798;28;20027;-84
2021/10/09 14:24:56;;;;;;;;;;;;;;;;;;4986784;28;20035;-84
2021/10/09 14:27:23;;;;;;;0.30;0.30;;;;;;;;;;4991295;28;19914;-84
2021/10/09 14:29:49;;;;;;;0.47;0.47;;;;;;;;;;5001149;28;20053;-83
2021/10/09 14:32:16;;;;;;;0.30;0.25;;;;;;;;;;4998214;28;20943;-84
2021/10/09 14:34:42;;;;;;;0.43;0.43;;;;;;;;;;4996772;28;20810;-84
2021/10/09 14:37:08;;;;;;;0.20;0.20;;;;;;;;;;4999425;28;20064;-85
2021/10/09 14:39:34;;;;;;;0.25;0.25;;;;;;;;;;4996947;28;20042;-83
2021/10/09 14:42:00;;;;;;;0.20;0.20;;;;;;;;;;4990472;28;20033;-82
2021/10/09 14:44:26;;;;;;;0.35;0.35;;;;;;;;;;4991085;28;20755;-84
2021/10/09 14:49:22;;;;;;;1.02;0.88;;;;;;;;;;5000195;28;20534;-84
2021/10/09 14:52:00;;;;;;;0.28;0.28;;;;;;;;;;4997335;28;20041;-85
2021/10/09 15:16:14;;;;;;;0.28;0.28;;;;;;;;;;4992401;28;20041;-83
2021/10/09 15:18:56;;;;;;;0.47;0.15;;;;;;;;;;4991741;28;20030;-84
2021/10/09 15:21:22;;;;;;;0.50;0.50;;;;;;;;;;4993999;28;20093;-83
2021/10/09 15:23:48;;;;;;;0.57;0.37;;;;;;;;;;4982453;28;20846;-84
2021/10/09 15:26:14;;;;;;;0.05;0.05;;;;;;;;;;4986323;28;21030;-84
2021/10/09 15:28:40;;;;;;;0.10;0.10;;;;;;;;;;4995867;28;20061;-84
2021/10/09 15:31:08;;;;;;;0.20;0.20;;;;;;;;;;4995509;28;20054;-85
2021/10/09 15:33:34;;;;;;;12.10;3.10;;;;;;;;;;4997984;28;20414;-85
2021/10/09 15:36:00;;;;;;;6.57;1.80;;;;;;;;;;4995639;28;20052;-84
2021/10/09 15:38:26;;;;;;;0.73;0.50;;;;;;;;;;4990004;28;20025;-84
2021/10/09 15:40:52;;;;;;;0.33;0.33;;;;;;;;;;4995202;28;20281;-84
2021/10/09 15:43:19;;;;;;;0.40;0.40;;;;;;;;;;5000877;28;20391;-84
2021/10/09 15:45:45;;;;;;;1.23;0.80;;;;;;;;;;4998917;28;20065;-83
2021/10/09 15:48:11;;;;;;;0.20;0.20;;;;;;;;;;4993529;28;20057;-84
2021/10/09 15:50:37;;;;;;;0.60;0.60;;;;;;;;;;5005180;28;20026;-83
2021/10/09 15:53:03;;;;;;;0.50;0.50;;;;;;;;;;5003540;28;20273;-83
2021/10/09 15:55:30;;;;;;;0.60;0.57;;;;;;;;;;5006258;28;20415;-83
2021/10/09 15:57:57;;;;;;;0.40;0.40;;;;;;;;;;5003868;28;20499;-83
2021/10/09 16:00:24;;;;;;;0.30;0.30;;;;;;;;;;4992609;28;20511;-84
2021/10/09 16:02:50;;;;;;;0.47;0.47;;;;;;;;;;5003552;28;20811;-83
2021/10/09 16:05:16;;;;;;;1.05;0.88;;;;;;;;;;5004183;28;20577;-84
2021/10/09 16:07:43;;;;;;;1.23;1.13;;;;;;;;;;5004732;28;20052;-83
2021/10/09 16:10:09;;;;;;;0.40;0.40;;;;;;;;;;4995171;28;20038;-85
2021/10/09 16:12:35;;;;;;;0.30;0.30;;;;;;;;;;4998203;28;20030;-83
2021/10/09 16:15:02;;;;;;;1.10;0.32;;;;;;;;;;4999908;28;20088;-83
2021/10/09 16:17:29;;;;;;;0.40;0.40;;;;;;;;;;4991058;28;20029;-83
2021/10/09 16:19:56;;;;;;;0.10;0.10;;;;;;;;;;5006463;28;20319;-84
2021/10/09 16:22:22;;;;;;;0.73;0.73;;;;;;;;;;4995946;28;20041;-85
2021/10/09 16:24:48;;;;;;;0.20;0.20;;;;;;;;;;4999768;28;20543;-82
2021/10/09 16:27:15;;;;;;;1.10;0.47;;;;;;;;;;5003487;28;20057;-89
2021/10/09 16:29:41;;;;;;;;;;;;;;;;;;5002443;28;20038;-83
2021/10/09 16:32:07;;;;;;;0.30;0.30;;;;;;;;;;5005347;28;19916;-82
2021/10/09 16:34:34;;;;;;;0.30;0.30;;;;;;;;;;4996595;28;20662;-85
2021/10/09 16:37:00;;;;;;;1.02;0.98;;;;;;;;;;5000666;28;20136;-87
2021/10/09 16:39:27;;;;;;;0.68;0.68;;;;;;;;;;5001125;28;20049;-84
2021/10/09 16:41:54;;;;;;;0.98;0.90;;;;;;;;;;5003412;28;20037;-83
2021/10/09 16:44:21;;;;;;;0.52;0.47;;;;;;;;;;5000048;28;20060;-83
2021/10/09 16:46:47;;;;;;;0.43;0.43;;;;;;;;;;5005556;28;20057;-82
2021/10/09 16:49:13;;;;;;;2.22;0.93;;;;;;;;;;5001994;28;20038;-83
2021/10/09 16:51:39;;;;;;;0.45;0.35;;;;;;;;;;5004301;28;20042;-81
2021/10/09 16:54:06;;;;;;;0.20;0.13;;;;;;;;;;5004622;28;20125;-82
2021/10/09 16:56:33;;;;;;;9.02;0.65;;;;;;;;;;4993618;28;20057;-82
2021/10/09 16:58:59;;;;;;;1.08;0.95;;;;;;;;;;4998538;28;20411;-82
2021/10/09 17:01:25;;;;;;;0.23;0.23;;;;;;;;;;4994233;28;20837;-81
2021/10/09 17:03:51;;;;;;;0.38;0.38;;;;;;;;;;4996171;28;20494;-81
2021/10/09 17:06:17;;;;;;;0.73;0.73;;;;;;;;;;4998065;28;20221;-82
2021/10/09 17:08:43;;;;;;;0.30;0.30;;;;;;;;;;4993907;28;20566;-82
2021/10/09 17:11:10;;;;;;;0.30;0.30;;;;;;;;;;4991423;28;20851;-82
2021/10/09 17:13:36;;;;;;;0.57;0.57;;;;;;;;;;4991777;28;20040;-82
2021/10/09 17:16:03;;;;;;;3.08;0.60;;;;;;;;;;4993535;28;20069;-81
2021/10/09 17:18:30;;;;;;;0.68;0.55;;;;;;;;;;4993131;28;20033;-82
2021/10/09 17:20:57;;;;;;;1.15;0.90;;;;;;;;;;4995874;28;20530;-81
2021/10/09 17:23:23;;;;;;;0.20;0.20;;;;;;;;;;4992802;28;20033;-82
2021/10/09 17:25:49;;;;;;;6.13;1.17;;;;;;;;;;4992978;28;20034;-84
2021/10/09 17:28:15;;;;;;;0.83;0.40;;;;;;;;;;4990590;28;20030;-80
2021/10/09 17:30:41;;;;;;;0.20;0.20;;;;;;;;;;4990271;28;20292;-82
2021/10/09 17:33:07;;;;;;;0.33;0.33;;;;;;;;;;4993376;28;20073;-82
2021/10/09 17:35:33;;;;;;;0.32;0.32;;;;;;;;;;4994137;28;20041;-83
2021/10/09 17:38:05;;;;;;;0.32;0.32;;;;;;;;;;4995724;28;20410;-84